createdAt,value
2023-01-01T00:01:05.420Z,15.8
2023-01-01T00:05:02.608Z,15.8
2023-01-01T00:10:02.537Z,15.8
2023-01-01T00:15:02.761Z,15.8
2023-01-01T00:20:02.913Z,15.6
2023-01-01T00:25:02.868Z,15.6
2023-01-01T00:30:02.949Z,15.6
2023-01-01T00:35:02.203Z,15.6
2023-01-01T00:40:02.243Z,15.6
2023-01-01T00:45:02.832Z,15.6
2023-01-01T00:50:02.889Z,15.6
2023-01-01T00:55:03.438Z,15.6
2023-01-01T01:00:03.578Z,15.6
2023-01-01T01:05:02.961Z,15.6
2023-01-01T01:10:02.574Z,15.8
2023-01-01T01:15:02.214Z,15.6
2023-01-01T01:20:02.377Z,15.5
2023-01-01T01:25:02.651Z,15.6
2023-01-01T01:30:03.682Z,15.6
2023-01-01T01:35:03.676Z,15.5
2023-01-01T01:40:03.313Z,15.5
2023-01-01T01:45:03.059Z,15.3
2023-01-01T01:50:03.378Z,15.3
2023-01-01T01:55:03.195Z,15.3
2023-01-01T02:00:10.472Z,15.3
2023-01-01T02:05:02.758Z,15.5
2023-01-01T02:10:03.188Z,15.3
2023-01-01T02:15:02.276Z,15.3
2023-01-01T02:20:03.113Z,15.1
2023-01-01T02:25:03.256Z,15.1
2023-01-01T02:30:02.780Z,15.1
2023-01-01T02:35:03.195Z,15.1
2023-01-01T02:40:02.248Z,15.1
2023-01-01T02:45:02.660Z,15.0
2023-01-01T02:50:03.274Z,14.8
2023-01-01T02:55:02.665Z,15.0
2023-01-01T03:00:03.084Z,14.8
2023-01-01T03:05:02.808Z,14.8
2023-01-01T03:10:03.290Z,15.0
2023-01-01T03:15:03.356Z,14.8
2023-01-01T03:20:02.749Z,14.6
2023-01-01T03:25:03.142Z,14.8
2023-01-01T03:30:02.624Z,14.6
2023-01-01T03:35:02.906Z,14.6
2023-01-01T03:40:03.402Z,14.6
2023-01-01T03:45:02.582Z,14.8
2023-01-01T03:50:03.144Z,14.6
2023-01-01T03:55:10.066Z,14.5
2023-01-01T04:00:02.172Z,14.6
2023-01-01T04:05:02.726Z,14.6
2023-01-01T04:10:03.491Z,14.5
2023-01-01T04:15:02.840Z,14.5
2023-01-01T04:20:03.340Z,14.6
2023-01-01T04:25:03.409Z,14.6
2023-01-01T04:30:02.934Z,14.5
2023-01-01T04:35:03.940Z,14.5
2023-01-01T04:40:03.606Z,14.5
2023-01-01T04:45:02.899Z,14.5
2023-01-01T04:50:03.423Z,14.3
2023-01-01T04:55:02.659Z,14.3
2023-01-01T05:00:03.720Z,14.3
2023-01-01T05:05:03.740Z,14.3
2023-01-01T05:10:03.689Z,14.3
2023-01-01T05:15:03.323Z,14.3
2023-01-01T05:20:04.034Z,14.3
2023-01-01T05:25:02.484Z,14.3
2023-01-01T05:30:03.814Z,14.3
2023-01-01T05:35:04.056Z,14.3
2023-01-01T05:40:02.623Z,14.1
2023-01-01T05:45:03.821Z,14.1
2023-01-01T05:55:02.939Z,14.1
2023-01-01T06:00:02.218Z,14.0
2023-01-01T06:05:02.918Z,14.0
2023-01-01T06:10:03.634Z,14.1
2023-01-01T06:15:03.068Z,14.1
2023-01-01T06:20:02.507Z,14.0
2023-01-01T06:25:03.399Z,14.0
2023-01-01T06:30:02.780Z,14.0
2023-01-01T06:35:03.715Z,14.0
2023-01-01T06:40:02.852Z,14.0
2023-01-01T06:45:03.364Z,14.0
2023-01-01T06:50:03.317Z,13.8
2023-01-01T06:55:02.989Z,13.6
2023-01-01T07:00:02.282Z,13.6
2023-01-01T07:05:02.964Z,13.6
2023-01-01T07:10:02.618Z,13.6
2023-01-01T07:15:03.375Z,13.6
2023-01-01T07:20:02.906Z,13.1
2023-01-01T07:25:04.558Z,12.1
2023-01-01T07:30:02.865Z,10.5
2023-01-01T07:35:03.567Z,10.3
2023-01-01T07:40:02.819Z,10.3
2023-01-01T07:45:03.729Z,10.1
2023-01-01T07:50:03.232Z,10.1
2023-01-01T07:55:02.643Z,10.1
2023-01-01T08:00:03.307Z,10.1
2023-01-01T08:05:02.503Z,10.1
2023-01-01T08:10:03.262Z,10.1
2023-01-01T08:15:02.153Z,10.1
2023-01-01T08:20:02.656Z,10.1
2023-01-01T08:25:03.178Z,10.3
2023-01-01T08:30:02.327Z,10.3
2023-01-01T08:35:02.980Z,10.3
2023-01-01T08:40:02.541Z,10.3
2023-01-01T08:45:02.682Z,10.3
2023-01-01T08:50:02.875Z,10.5
2023-01-01T08:55:03.100Z,10.3
2023-01-01T09:00:02.342Z,10.3
2023-01-01T09:05:02.458Z,10.3
2023-01-01T09:10:02.976Z,10.3
2023-01-01T09:15:04.814Z,10.1
2023-01-01T09:20:03.121Z,10.1
2023-01-01T09:25:03.317Z,10.1
2023-01-01T09:30:02.923Z,10.3
2023-01-01T09:35:03.115Z,10.1
2023-01-01T09:40:02.224Z,10.1
2023-01-01T09:45:12.576Z,10.1
2023-01-01T09:50:03.195Z,10.1
2023-01-01T09:55:03.002Z,10.1
2023-01-01T10:00:03.134Z,10.1
2023-01-01T10:05:02.983Z,10.1
2023-01-01T10:10:03.074Z,10.3
2023-01-01T10:15:02.442Z,10.3
2023-01-01T10:20:02.888Z,10.3
2023-01-01T10:25:03.256Z,10.5
2023-01-01T10:30:04.510Z,10.5
2023-01-01T10:35:05.147Z,10.5
2023-01-01T10:40:12.399Z,10.5
2023-01-01T10:45:02.896Z,10.5
2023-01-01T10:50:03.894Z,10.5
2023-01-01T10:55:03.415Z,10.8
2023-01-01T11:00:02.495Z,10.8
2023-01-01T11:05:08.561Z,10.8
2023-01-01T11:10:04.672Z,10.8
2023-01-01T11:15:01.964Z,10.8
2023-01-01T11:20:02.943Z,10.8
2023-01-01T11:25:02.121Z,10.8
2023-01-01T11:30:02.025Z,10.8
2023-01-01T11:35:02.451Z,11.0
2023-01-01T11:40:02.575Z,11.0
2023-01-01T11:45:02.949Z,11.8
2023-01-01T11:50:02.691Z,11.8
2023-01-01T11:55:12.966Z,12.8
2023-01-01T12:00:01.973Z,12.8
2023-01-01T12:05:02.519Z,12.8
2023-01-01T12:10:03.189Z,13.1
2023-01-01T12:15:03.222Z,13.1
2023-01-01T12:20:02.741Z,13.1
2023-01-01T12:25:03.551Z,13.1
2023-01-01T12:30:03.209Z,13.1
2023-01-01T12:35:13.012Z,13.1
2023-01-01T12:40:02.795Z,13.3
2023-01-01T12:45:03.933Z,13.3
2023-01-01T12:50:04.469Z,13.3
2023-01-01T12:55:02.728Z,13.3
2023-01-01T13:00:03.337Z,13.1
2023-01-01T13:05:02.802Z,13.1
2023-01-01T13:10:03.513Z,13.1
2023-01-01T13:15:02.789Z,13.1
2023-01-01T13:20:02.879Z,13.1
2023-01-01T13:25:02.975Z,13.1
2023-01-01T13:30:02.168Z,13.1
2023-01-01T13:35:02.772Z,13.1
2023-01-01T13:40:03.341Z,12.8
2023-01-01T13:45:02.623Z,12.8
2023-01-01T13:50:03.099Z,13.1
2023-01-01T13:55:02.751Z,13.1
2023-01-01T14:00:03.051Z,12.8
2023-01-01T14:05:02.441Z,12.8
2023-01-01T14:10:03.443Z,12.8
2023-01-01T14:15:03.102Z,12.8
2023-01-01T14:20:02.735Z,12.8
2023-01-01T14:25:09.180Z,12.8
2023-01-01T14:30:02.807Z,12.8
2023-01-01T14:35:03.176Z,12.8
2023-01-01T14:40:12.432Z,12.5
2023-01-01T14:45:03.019Z,12.5
2023-01-01T14:50:03.181Z,12.6
2023-01-01T14:55:02.855Z,12.6
2023-01-01T15:00:03.738Z,12.5
2023-01-01T15:05:03.002Z,12.5
2023-01-01T15:10:03.164Z,12.5
2023-01-01T15:15:03.194Z,12.5
2023-01-01T15:20:02.792Z,12.5
2023-01-01T15:25:03.809Z,12.5
2023-01-01T15:30:07.041Z,12.3
2023-01-01T15:35:02.398Z,12.3
2023-01-01T15:40:03.989Z,12.3
2023-01-01T15:45:01.991Z,12.3
2023-01-01T15:50:02.020Z,12.3
2023-01-01T15:55:01.901Z,12.3
2023-01-01T16:00:02.952Z,12.1
2023-01-01T16:05:02.996Z,12.1
2023-01-01T16:10:02.441Z,12.1
2023-01-01T16:15:02.868Z,12.1
2023-01-01T16:20:03.795Z,12.1
2023-01-01T16:25:03.356Z,12.1
2023-01-01T16:30:03.339Z,12.1
2023-01-01T16:35:08.126Z,12.1
2023-01-01T16:40:02.954Z,12.1
2023-01-01T16:45:02.732Z,12.1
2023-01-01T16:50:02.673Z,12.0
2023-01-01T16:55:03.004Z,11.8
2023-01-01T17:00:03.017Z,11.6
2023-01-01T17:05:02.416Z,11.6
2023-01-01T17:10:03.525Z,10.8
2023-01-01T17:15:02.764Z,10.5
2023-01-01T17:20:02.963Z,10.8
2023-01-01T17:25:02.282Z,10.3
2023-01-01T17:30:03.308Z,10.1
2023-01-01T17:35:02.671Z,10.1
2023-01-01T17:40:03.263Z,10.8
2023-01-01T17:45:02.394Z,11.0
2023-01-01T17:50:04.596Z,11.0
2023-01-01T17:55:03.107Z,10.8
2023-01-01T18:00:02.324Z,10.1
2023-01-01T18:05:02.869Z,10.1
2023-01-01T18:10:03.107Z,10.1
2023-01-01T18:15:02.322Z,10.1
2023-01-01T18:20:02.449Z,10.1
2023-01-01T18:25:02.501Z,10.1
2023-01-01T18:30:03.280Z,10.1
2023-01-01T18:35:02.892Z,10.1
2023-01-01T18:40:03.453Z,10.1
2023-01-01T18:45:03.312Z,10.1
2023-01-01T18:50:02.484Z,10.1
2023-01-01T18:55:03.362Z,10.1
2023-01-01T19:00:04.229Z,10.1
2023-01-01T19:05:03.497Z,10.1
2023-01-01T19:10:14.016Z,10.1
2023-01-01T19:15:05.400Z,10.1
2023-01-01T19:20:03.968Z,10.1
2023-01-01T19:25:13.003Z,10.1
2023-01-01T19:30:04.411Z,10.1
2023-01-01T19:35:04.956Z,10.1
2023-01-01T19:40:12.924Z,10.1
2023-01-01T19:45:16.556Z,10.1
2023-01-01T19:50:09.266Z,10.1
2023-01-01T19:55:04.193Z,10.1
2023-01-01T20:00:15.372Z,10.1
2023-01-01T20:05:03.237Z,10.1
2023-01-01T20:10:02.655Z,10.1
2023-01-01T20:15:03.391Z,10.1
2023-01-01T20:20:03.622Z,10.1
2023-01-01T20:25:03.479Z,10.1
2023-01-01T20:30:02.836Z,10.1
2023-01-01T20:35:03.599Z,10.3
2023-01-01T20:40:02.781Z,10.3
2023-01-01T20:45:03.400Z,10.3
2023-01-01T20:50:02.914Z,10.1
2023-01-01T20:55:03.309Z,10.1
2023-01-01T21:00:02.298Z,10.3
2023-01-01T21:05:02.569Z,10.3
2023-01-01T21:10:02.643Z,10.1
2023-01-01T21:15:02.855Z,10.1
2023-01-01T21:20:03.122Z,10.1
2023-01-01T21:25:40.607Z,10.3
2023-01-01T21:30:02.892Z,10.1
2023-01-01T21:35:03.046Z,10.1
2023-01-01T21:40:02.275Z,10.1
2023-01-01T21:45:02.480Z,10.3
2023-01-01T21:50:02.692Z,10.3
2023-01-01T21:55:02.828Z,10.1
2023-01-01T22:00:02.887Z,10.1
2023-01-01T22:05:03.049Z,10.1
2023-01-01T22:10:02.389Z,10.1
2023-01-01T22:15:03.143Z,10.1
2023-01-01T22:20:02.880Z,10.1
2023-01-01T22:25:03.116Z,10.1
2023-01-01T22:30:02.805Z,10.3
2023-01-01T22:35:15.580Z,10.3
2023-01-01T22:40:08.415Z,10.1
2023-01-01T22:45:08.259Z,10.1
2023-01-01T22:50:08.055Z,10.3
2023-01-01T22:55:07.944Z,10.3
2023-01-01T23:00:08.811Z,10.3
2023-01-01T23:05:08.608Z,10.5
2023-01-01T23:10:08.381Z,10.3
2023-01-01T23:15:08.213Z,10.5
2023-01-01T23:20:08.009Z,10.5
2023-01-01T23:25:07.813Z,10.5
2023-01-01T23:30:08.616Z,10.5
2023-01-01T23:35:08.442Z,10.5
2023-01-01T23:40:08.259Z,10.5
2023-01-01T23:45:08.056Z,10.5
2023-01-01T23:50:07.853Z,10.5
2023-01-01T23:55:08.705Z,10.6
